Wednesday, November 22, 2017, 4:11 AM EST
Back to Local

KPHL, Philadelphia International Airpt

Location: Philadelphia, PA, United States Lat: 39.867
Local Time: 4:11 AM EST ( 9:11 GMT) Lon: -75.233
Time Zone: US/Eastern Elev: 19 ft

Show me the last for .
Show Decoded

2017-11-22 03:54 METAR KPHL 220854Z 18005KT 10SM FEW042 SCT120 BKN180 OVC220 12/08 A2993 RMK AO2
                 SLP135 T01170083 58021 =
2017-11-22 02:54 METAR KPHL 220754Z 17005KT 10SM SCT100 OVC220 12/08 A2996 RMK AO2 SLP145
                 T01170078 =
2017-11-22 01:54 METAR KPHL 220654Z 18004KT 10SM FEW140 BKN220 OVC280 12/07 A2997 RMK AO2 SLP150
                 T01220072 =
2017-11-22 00:54 METAR KPHL 220554Z 20006KT 10SM FEW180 BKN220 OVC280 12/07 A2999 RMK AO2 SLP156
                 T01220067 10133 20106 58019 =
2017-11-21 23:54 METAR KPHL 220454Z 19005KT 10SM SCT200 BKN250 11/06 A3002 RMK AO2 SLP164
                 T01110056 401500044 =
2017-11-21 22:54 METAR KPHL 220354Z 23008KT 10SM SCT200 BKN250 12/05 A3003 RMK AO2 SLP170
                 T01170050 =
2017-11-21 21:54 METAR KPHL 220254Z 24008KT 10SM SCT200 BKN250 12/04 A3005 RMK AO2 SLP176
                 T01220044 53001 =
2017-11-21 20:54 METAR KPHL 220154Z 21009KT 10SM BKN250 13/03 A3005 RMK AO2 SLP175 T01330033 =
2017-11-21 19:54 METAR KPHL 220054Z 21007KT 10SM BKN250 12/04 A3004 RMK AO2 SLP173 T01220044 =
2017-11-21 18:54 METAR KPHL 212354Z 20008KT 10SM BKN250 12/04 A3005 RMK AO2 SLP175 T01170044
                 10150 20117 53004 =
2017-11-21 17:54 METAR KPHL 212254Z 20011KT 10SM BKN250 12/03 A3004 RMK AO2 SLP171 T01220033 =
2017-11-21 16:54 METAR KPHL 212154Z 19008G15KT 10SM BKN250 13/02 A3003 RMK AO2 SLP170 T01280022 =
2017-11-21 15:54 METAR KPHL 212054Z 20010KT 10SM BKN250 14/01 A3004 RMK AO2 SLP171 T01440011
                 55014 =
2017-11-21 14:54 METAR KPHL 211954Z 21017G22KT 10SM SCT240 BKN270 15/00 A3002 RMK AO2 SLP166
                 T01500000 =
2017-11-21 13:54 METAR KPHL 211854Z 22011KT 10SM BKN220 BKN260 14/M02 A3004 RMK AO2 SLP172
                 T01441022 =
2017-11-21 12:54 METAR KPHL 211754Z 20013G22KT 10SM BKN240 14/M02 A3008 RMK AO2 PK WND 22028/1657
                 SLP185 T01391017 10139 20044 58021 =
2017-11-21 11:54 METAR KPHL 211654Z 21015KT 10SM BKN280 13/M01 A3010 RMK AO2 PK WND 22029/1601
                 SLP193 T01331006 =
2017-11-21 10:54 METAR KPHL 211554Z 23019G26KT 10SM BKN280 13/M01 A3012 RMK AO2 PK WND 23026/1553
                 SLP199 T01281011 =
2017-11-21 09:54 METAR KPHL 211454Z 23016G21KT 10SM BKN280 11/M01 A3014 RMK AO2 SLP206 T01111006
                 58001 =
2017-11-21 08:54 METAR KPHL 211354Z 21013KT 10SM SCT280 09/00 A3015 RMK AO2 SLP207 T00890000 =
2017-11-21 07:54 METAR KPHL 211254Z 18007KT 10SM SCT280 06/01 A3015 RMK AO2 SLP209 T00560006 $ =
2017-11-21 06:54 METAR KPHL 211154Z 19004KT 10SM SCT280 05/M01 A3015 RMK AO2 SLP207 T00501006
                 10061 20044 53001 $ =
2017-11-21 05:54 METAR KPHL 211054Z 20007KT 10SM FEW250 06/M01 A3015 RMK AO2 SLP207 T00561006 $ =
2017-11-21 04:54 METAR KPHL 210954Z 21006KT 10SM FEW250 05/M01 A3014 RMK AO2 SLP205 T00501006 $ =

Support USWX by starting your Amazon purchase here.